createdAt,value
2022-08-24T00:01:22.399Z,93921.94
2022-08-24T00:03:49.751Z,93928.88
2022-08-24T00:06:23.580Z,93928.41
2022-08-24T00:08:52.851Z,93930.34
2022-08-24T00:11:20.484Z,93944.25
2022-08-24T00:13:47.423Z,93947.56
2022-08-24T00:16:15.964Z,93941.69
2022-08-24T00:18:44.256Z,93941.13
2022-08-24T00:21:10.991Z,93947.25
2022-08-24T00:23:37.634Z,93946.09
2022-08-24T00:26:05.353Z,93955.63
2022-08-24T00:28:32.126Z,93964.34
2022-08-24T00:30:59.080Z,93963.56
2022-08-24T00:33:26.522Z,93963.38
2022-08-24T00:35:53.201Z,93959.69
2022-08-24T00:38:20.353Z,93963.81
2022-08-24T00:40:49.214Z,93962.94
2022-08-24T00:43:20.671Z,93955.16
2022-08-24T00:46:21.979Z,93959.72
2022-08-24T00:48:55.213Z,93957.81
2022-08-24T00:51:33.445Z,93959.31
2022-08-24T00:54:08.799Z,93959.47
2022-08-24T00:56:49.417Z,93958.22
2022-08-24T00:59:22.444Z,93964.22
2022-08-24T01:01:51.387Z,93960.31
2022-08-24T01:04:29.881Z,93968.03
2022-08-24T01:06:57.366Z,93967.09
2022-08-24T01:09:24.152Z,93978.22
2022-08-24T01:11:51.013Z,93967.69
2022-08-24T01:14:20.479Z,93974.78
2022-08-24T01:17:05.862Z,93981.59
2022-08-24T01:19:39.543Z,93982.47
2022-08-24T01:22:21.014Z,93974.38
2022-08-24T01:24:47.870Z,93986.19
2022-08-24T01:27:15.595Z,93991.41
2022-08-24T01:29:45.737Z,93991.41
2022-08-24T01:32:14.488Z,93996.31
2022-08-24T01:34:41.255Z,93997.50
2022-08-24T01:37:10.867Z,93995.63
2022-08-24T01:39:43.855Z,93996.91
2022-08-24T01:42:11.541Z,94003.66
2022-08-24T01:44:40.203Z,93998.16
2022-08-24T01:47:08.717Z,93997.19
2022-08-24T01:49:40.079Z,93999.28
2022-08-24T01:52:08.202Z,93995.03
2022-08-24T01:54:35.376Z,93990.44
2022-08-24T01:57:02.280Z,93992.13
2022-08-24T01:59:29.654Z,93995.84
2022-08-24T02:02:19.887Z,94000.16
2022-08-24T02:04:46.581Z,93995.91
2022-08-24T02:07:14.080Z,93997.75
2022-08-24T02:09:40.882Z,94008.25
2022-08-24T02:12:08.200Z,94010.56
2022-08-24T02:14:36.572Z,94006.41
2022-08-24T02:17:05.829Z,94014.38
2022-08-24T02:19:32.678Z,94013.44
2022-08-24T02:22:00.529Z,94031.13
2022-08-24T02:24:30.660Z,94027.22
2022-08-24T02:26:58.235Z,94027.09
2022-08-24T02:29:25.396Z,94032.34
2022-08-24T02:31:52.296Z,94033.44
2022-08-24T02:34:19.065Z,94020.34
2022-08-24T02:36:45.953Z,94026.00
2022-08-24T02:39:13.091Z,94025.59
2022-08-24T02:41:39.882Z,94036.13
2022-08-24T02:44:07.187Z,94041.53
2022-08-24T02:46:33.917Z,94030.44
2022-08-24T02:49:10.564Z,94036.72
2022-08-24T02:51:44.078Z,94039.22
2022-08-24T02:54:13.569Z,94040.34
2022-08-24T02:56:40.277Z,94042.81
2022-08-24T02:59:06.974Z,94047.59
2022-08-24T03:01:33.860Z,94042.13
2022-08-24T03:04:00.564Z,94047.25
2022-08-24T03:06:27.248Z,94043.31
2022-08-24T03:08:56.421Z,94045.22
2022-08-24T03:11:28.008Z,94035.91
2022-08-24T03:13:56.458Z,94039.31
2022-08-24T03:16:23.155Z,94041.34
2022-08-24T03:18:49.903Z,94037.94
2022-08-24T03:21:18.743Z,94040.19
2022-08-24T03:23:45.383Z,94037.00
2022-08-24T03:26:13.067Z,94042.25
2022-08-24T03:28:40.140Z,94034.19
2022-08-24T03:31:07.479Z,94037.72
2022-08-24T03:33:34.299Z,94048.03
2022-08-24T03:36:00.985Z,94057.41
2022-08-24T03:38:28.370Z,94052.31
2022-08-24T03:40:55.041Z,94049.88
2022-08-24T03:43:40.261Z,94047.50
2022-08-24T03:46:09.152Z,94048.25
2022-08-24T03:48:36.765Z,94051.59
2022-08-24T03:51:03.755Z,94062.63
2022-08-24T03:53:30.455Z,94064.66
2022-08-24T03:55:57.078Z,94055.16
2022-08-24T03:58:23.971Z,94058.25
2022-08-24T04:00:50.895Z,94058.59
2022-08-24T04:03:17.682Z,94053.91
2022-08-24T04:05:44.422Z,94055.03
2022-08-24T04:08:11.490Z,94054.94
2022-08-24T04:10:43.575Z,94052.81
2022-08-24T04:13:10.242Z,94057.75
2022-08-24T04:15:40.911Z,94057.81
2022-08-24T04:18:08.479Z,94056.22
2022-08-24T04:20:41.152Z,94059.16
2022-08-24T04:23:09.306Z,94058.75
2022-08-24T04:25:41.742Z,94052.47
2022-08-24T04:28:08.541Z,94058.66
2022-08-24T04:30:35.185Z,94057.66
2022-08-24T04:33:02.332Z,94061.03
2022-08-24T04:35:29.119Z,94061.31
2022-08-24T04:37:55.791Z,94067.66
2022-08-24T04:40:22.632Z,94072.25
2022-08-24T04:42:50.651Z,94066.59
2022-08-24T04:45:17.322Z,94072.47
2022-08-24T04:47:45.585Z,94072.19
2022-08-24T04:50:12.947Z,94071.91
2022-08-24T04:52:39.703Z,94067.03
2022-08-24T04:55:07.633Z,94064.19
2022-08-24T04:57:35.068Z,94061.06
2022-08-24T05:00:03.279Z,94070.16
2022-08-24T05:02:30.015Z,94068.38
2022-08-24T05:04:57.932Z,94061.00
2022-08-24T05:07:25.876Z,94064.97
2022-08-24T05:09:52.845Z,94060.69
2022-08-24T05:12:20.911Z,94064.63
2022-08-24T05:14:47.609Z,94061.84
2022-08-24T05:17:14.299Z,94061.72
2022-08-24T05:19:41.038Z,94060.66
2022-08-24T05:22:08.119Z,94064.00
2022-08-24T05:24:34.872Z,94063.72
2022-08-24T05:27:01.559Z,94064.31
2022-08-24T05:29:28.303Z,94062.13
2022-08-24T05:31:55.038Z,94065.34
2022-08-24T05:34:23.863Z,94054.41
2022-08-24T05:36:50.529Z,94046.25
2022-08-24T05:39:17.207Z,94046.25
2022-08-24T05:41:45.341Z,94047.66
2022-08-24T05:44:14.182Z,94052.09
2022-08-24T05:46:41.250Z,94051.53
2022-08-24T05:49:08.306Z,94050.06
2022-08-24T05:51:35.698Z,94048.47
2022-08-24T05:54:05.037Z,94047.00
2022-08-24T05:56:32.255Z,94038.75
2022-08-24T05:58:59.352Z,94039.94
2022-08-24T06:01:27.266Z,94042.50
2022-08-24T06:03:56.462Z,94049.16
2022-08-24T06:06:24.320Z,94057.34
2022-08-24T06:08:53.529Z,94053.22
2022-08-24T06:11:24.751Z,94056.91
2022-08-24T06:14:07.368Z,94039.84
2022-08-24T06:16:41.318Z,94058.09
2022-08-24T06:19:09.921Z,94047.53
2022-08-24T06:21:37.988Z,94053.16
2022-08-24T06:24:06.569Z,94057.63
2022-08-24T06:26:52.561Z,94049.78
2022-08-24T06:29:20.320Z,94054.34
2022-08-24T06:31:54.218Z,94059.81
2022-08-24T06:34:23.313Z,94054.59
2022-08-24T06:36:50.463Z,94051.25
2022-08-24T06:39:17.261Z,94054.06
2022-08-24T06:41:44.133Z,94059.63
2022-08-24T06:44:11.121Z,94060.03
2022-08-24T06:46:37.943Z,94057.22
2022-08-24T06:49:05.532Z,94051.31
2022-08-24T06:51:32.627Z,94058.22
2022-08-24T06:53:59.529Z,94062.47
2022-08-24T06:56:26.503Z,94070.03
2022-08-24T06:58:53.264Z,94064.94
2022-08-24T07:01:27.559Z,94075.91
2022-08-24T07:03:54.880Z,94073.50
2022-08-24T07:06:23.596Z,94077.59
2022-08-24T07:08:51.135Z,94084.44
2022-08-24T07:11:19.095Z,94080.22
2022-08-24T07:13:47.526Z,94079.41
2022-08-24T07:16:22.172Z,94081.19
2022-08-24T07:18:50.229Z,94086.00
2022-08-24T07:21:19.737Z,94084.09
2022-08-24T07:23:48.319Z,94090.78
2022-08-24T07:26:21.472Z,94089.84
2022-08-24T07:29:01.403Z,94095.16
2022-08-24T07:31:32.025Z,94096.38
2022-08-24T07:34:01.450Z,94093.22
2022-08-24T07:36:28.545Z,94087.66
2022-08-24T07:38:56.218Z,94081.16
2022-08-24T07:44:13.044Z,94078.50
2022-08-24T07:46:41.772Z,94087.63
2022-08-24T07:49:31.600Z,94080.16
2022-08-24T07:51:56.109Z,94089.25
2022-08-24T07:54:22.917Z,94088.81
2022-08-24T07:56:50.338Z,94084.00
2022-08-24T07:59:18.181Z,94081.00
2022-08-24T08:01:45.067Z,94072.38
2022-08-24T08:04:12.148Z,94071.63
2022-08-24T08:06:38.879Z,94068.75
2022-08-24T08:09:06.434Z,94067.72
2022-08-24T08:11:33.210Z,94073.78
2022-08-24T08:14:00.079Z,94076.38
2022-08-24T08:16:27.866Z,94069.72
2022-08-24T08:19:11.068Z,94064.13
2022-08-24T08:22:16.950Z,94059.16
2022-08-24T08:24:43.951Z,94065.63
2022-08-24T08:27:12.550Z,94062.22
2022-08-24T08:29:40.682Z,94070.97
2022-08-24T08:32:09.546Z,94068.97
2022-08-24T08:34:36.818Z,94070.09
2022-08-24T08:37:03.961Z,94065.50
2022-08-24T08:39:31.394Z,94069.63
2022-08-24T08:42:35.454Z,94064.63
2022-08-24T08:45:28.454Z,94064.69
2022-08-24T08:48:22.947Z,94058.13
2022-08-24T08:50:55.959Z,94064.38
2022-08-24T08:54:10.725Z,94063.41
2022-08-24T08:57:09.976Z,94049.63
2022-08-24T09:00:09.086Z,94058.41
2022-08-24T09:03:17.433Z,94068.56
2022-08-24T09:05:57.548Z,94069.22
2022-08-24T09:08:52.105Z,94064.88
2022-08-24T09:11:21.826Z,94065.03
2022-08-24T09:13:58.909Z,94059.50
2022-08-24T09:16:51.158Z,94059.81
2022-08-24T09:19:40.016Z,94075.25
2022-08-24T09:22:16.960Z,94058.34
2022-08-24T09:24:52.856Z,94047.69
2022-08-24T09:27:53.340Z,94052.59
2022-08-24T09:30:26.008Z,94054.41
2022-08-24T09:33:27.175Z,94061.69
2022-08-24T09:36:00.122Z,94048.50
2022-08-24T09:38:41.695Z,94034.47
2022-08-24T09:41:14.147Z,94032.91
2022-08-24T09:44:03.512Z,94029.34
2022-08-24T09:46:33.231Z,94031.84
2022-08-24T09:49:13.629Z,94030.47
2022-08-24T09:51:56.569Z,94022.50
2022-08-24T09:54:48.186Z,94013.56
2022-08-24T09:57:20.017Z,94019.22
2022-08-24T10:00:24.267Z,94011.19
2022-08-24T10:03:11.938Z,94005.16
2022-08-24T10:06:00.022Z,94003.75
2022-08-24T10:08:53.447Z,93997.97
2022-08-24T10:11:47.764Z,93990.59
2022-08-24T10:14:42.407Z,93998.56
2022-08-24T10:17:30.827Z,93980.69
2022-08-24T10:20:19.246Z,93978.03
2022-08-24T10:23:22.621Z,93982.16
2022-08-24T10:25:59.994Z,93977.25
2022-08-24T10:28:57.422Z,93977.16
2022-08-24T10:31:26.720Z,93979.34
2022-08-24T10:34:30.282Z,93988.91
2022-08-24T10:37:25.545Z,93981.16
2022-08-24T10:40:06.388Z,93982.00
2022-08-24T10:43:00.585Z,93982.53
2022-08-24T10:45:27.218Z,93987.09
2022-08-24T10:48:15.438Z,93982.13
2022-08-24T10:50:50.862Z,93984.81
2022-08-24T10:53:32.977Z,93983.00
2022-08-24T10:56:14.871Z,93981.53
2022-08-24T10:58:47.443Z,93978.44
2022-08-24T11:01:23.354Z,93976.06
2022-08-24T11:03:50.404Z,93981.66
2022-08-24T11:06:19.352Z,93971.50
2022-08-24T11:09:17.236Z,93983.91
2022-08-24T11:11:48.846Z,93978.44
2022-08-24T11:14:15.475Z,93975.97
2022-08-24T11:16:45.259Z,93973.41
2022-08-24T11:19:31.343Z,93974.84
2022-08-24T11:22:02.091Z,93966.69
2022-08-24T11:24:46.032Z,93963.13
2022-08-24T11:27:15.377Z,93961.59
2022-08-24T11:29:54.837Z,93961.22
2022-08-24T11:32:39.747Z,93966.13
2022-08-24T11:35:33.634Z,93970.00
2022-08-24T11:38:07.358Z,93958.59
2022-08-24T11:40:43.607Z,93956.00
2022-08-24T11:43:22.610Z,93958.28
2022-08-24T11:46:11.571Z,93958.91
2022-08-24T11:48:53.376Z,93957.81
2022-08-24T11:51:21.281Z,93950.81
2022-08-24T11:53:47.890Z,93955.72
2022-08-24T11:56:33.047Z,93957.84
2022-08-24T11:59:26.302Z,93959.47
2022-08-24T12:02:04.272Z,93953.34
2022-08-24T12:04:49.235Z,93953.56
2022-08-24T12:07:28.121Z,93946.72
2022-08-24T12:09:54.702Z,93946.66
2022-08-24T12:12:40.931Z,93953.38
2022-08-24T12:15:17.074Z,93957.72
2022-08-24T12:17:49.422Z,93948.13
2022-08-24T12:20:32.121Z,93949.25
2022-08-24T12:23:08.753Z,93941.09
2022-08-24T12:25:54.207Z,93939.34
2022-08-24T12:28:29.123Z,93934.19
2022-08-24T12:31:02.095Z,93942.53
2022-08-24T12:33:37.546Z,93925.00
2022-08-24T12:36:13.574Z,93935.44
2022-08-24T12:38:48.050Z,93929.34
2022-08-24T12:41:27.551Z,93935.09
2022-08-24T12:44:02.362Z,93941.72
2022-08-24T12:46:30.392Z,93939.50
2022-08-24T12:49:12.466Z,93944.19
2022-08-24T12:52:05.136Z,93950.47
2022-08-24T12:54:53.319Z,93950.63
2022-08-24T12:57:39.619Z,93942.97
2022-08-24T13:00:24.543Z,93950.75
2022-08-24T13:03:04.461Z,93944.16
2022-08-24T13:05:50.799Z,93940.19
2022-08-24T13:08:32.083Z,93944.06
2022-08-24T13:11:27.539Z,93945.84
2022-08-24T13:13:54.102Z,93950.47
2022-08-24T13:17:06.698Z,93959.44
2022-08-24T13:19:38.668Z,93957.38
2022-08-24T13:22:10.860Z,93961.03
2022-08-24T13:24:42.076Z,93969.88
2022-08-24T13:27:11.581Z,93976.59
2022-08-24T13:30:13.546Z,93971.53
2022-08-24T13:32:45.489Z,93974.78
2022-08-24T13:35:55.315Z,93977.03
2022-08-24T13:38:24.582Z,93974.63
2022-08-24T13:40:56.931Z,93982.28
2022-08-24T13:43:26.555Z,93980.97
2022-08-24T13:46:00.108Z,93971.44
2022-08-24T13:48:49.429Z,93980.31
2022-08-24T13:51:24.983Z,93981.44
2022-08-24T13:54:20.389Z,93971.75
2022-08-24T13:57:07.124Z,93965.78
2022-08-24T13:59:52.173Z,93965.06
2022-08-24T14:02:39.269Z,93964.34
2022-08-24T14:05:44.036Z,93959.50
2022-08-24T14:08:28.537Z,93950.25
2022-08-24T14:11:08.977Z,93958.97
2022-08-24T14:14:05.341Z,93960.72
2022-08-24T14:17:02.630Z,93959.47
2022-08-24T14:19:43.155Z,93952.63
2022-08-24T14:22:09.770Z,93949.34
2022-08-24T14:24:48.581Z,93959.72
2022-08-24T14:27:35.005Z,93949.69
2022-08-24T14:30:23.518Z,93968.53
2022-08-24T14:33:03.465Z,93960.91
2022-08-24T14:35:53.706Z,93967.03
2022-08-24T14:38:20.313Z,93955.78
2022-08-24T14:40:53.015Z,93959.97
2022-08-24T14:43:30.843Z,93961.22
2022-08-24T14:46:19.278Z,93970.06
2022-08-24T14:48:48.781Z,93972.31
2022-08-24T14:51:44.195Z,93963.59
2022-08-24T14:54:47.840Z,93971.63
2022-08-24T14:57:37.888Z,93977.50
2022-08-24T15:00:15.924Z,93972.47
2022-08-24T15:02:51.644Z,93971.13
2022-08-24T15:05:36.175Z,93969.91
2022-08-24T15:08:13.273Z,93973.81
2022-08-24T15:11:05.676Z,93963.03
2022-08-24T15:13:42.095Z,93965.88
2022-08-24T15:16:27.303Z,93967.84
2022-08-24T15:19:03.045Z,93966.22
2022-08-24T15:21:47.764Z,93976.94
2022-08-24T15:24:29.238Z,93986.72
2022-08-24T15:27:33.605Z,93986.44
2022-08-24T15:30:04.651Z,93985.06
2022-08-24T15:32:44.554Z,93983.09
2022-08-24T15:35:30.453Z,93992.09
2022-08-24T15:37:58.094Z,93981.63
2022-08-24T15:40:31.707Z,93993.63
2022-08-24T15:43:04.082Z,93991.94
2022-08-24T15:45:32.950Z,93991.69
2022-08-24T15:48:02.378Z,93987.75
2022-08-24T15:50:41.637Z,93985.31
2022-08-24T15:53:14.167Z,93985.31
2022-08-24T15:55:43.723Z,93989.50
2022-08-24T15:58:37.646Z,93987.38
2022-08-24T16:01:28.736Z,93990.31
2022-08-24T16:04:01.956Z,93994.47
2022-08-24T16:06:31.853Z,93993.56
2022-08-24T16:09:18.711Z,93997.25
2022-08-24T16:11:48.172Z,93992.41
2022-08-24T16:14:25.924Z,93991.00
2022-08-24T16:16:54.472Z,93996.19
2022-08-24T16:19:25.911Z,94000.03
2022-08-24T16:22:01.135Z,93998.56
2022-08-24T16:24:33.148Z,94003.66
2022-08-24T16:27:14.727Z,94006.66
2022-08-24T16:29:45.197Z,94001.19
2022-08-24T16:32:33.649Z,94007.75
2022-08-24T16:35:11.699Z,94011.81
2022-08-24T16:37:39.367Z,94005.19
2022-08-24T16:40:08.522Z,94002.13
2022-08-24T16:42:36.544Z,93993.81
2022-08-24T16:45:06.110Z,93993.34
2022-08-24T16:47:32.793Z,93989.59
2022-08-24T16:49:59.408Z,93996.81
2022-08-24T16:52:26.061Z,93994.53
2022-08-24T16:54:52.682Z,93999.91
2022-08-24T16:57:22.965Z,93996.97
2022-08-24T16:59:52.152Z,93993.16
2022-08-24T17:02:20.232Z,94000.47
2022-08-24T17:04:46.967Z,94019.00
2022-08-24T17:07:21.531Z,94026.88
2022-08-24T17:09:48.865Z,94025.94
2022-08-24T17:12:15.643Z,94036.38
2022-08-24T17:14:42.831Z,94034.41
2022-08-24T17:17:13.645Z,94041.78
2022-08-24T17:19:41.075Z,94040.22
2022-08-24T17:22:14.294Z,94040.53
2022-08-24T17:24:43.083Z,94040.13
2022-08-24T17:27:09.767Z,94047.78
2022-08-24T17:29:36.627Z,94052.56
2022-08-24T17:32:03.918Z,94044.81
2022-08-24T17:34:32.190Z,94046.81
2022-08-24T17:37:00.112Z,94059.41
2022-08-24T17:39:27.472Z,94050.88
2022-08-24T17:41:56.368Z,94052.94
2022-08-24T17:44:26.723Z,94062.06
2022-08-24T17:46:57.686Z,94064.56
2022-08-24T17:49:25.095Z,94060.75
2022-08-24T17:51:52.146Z,94064.69
2022-08-24T17:54:19.391Z,94079.53
2022-08-24T17:56:48.746Z,94076.94
2022-08-24T17:59:23.575Z,94080.69
2022-08-24T18:01:52.679Z,94088.13
2022-08-24T18:04:21.858Z,94092.84
2022-08-24T18:06:49.596Z,94095.38
2022-08-24T18:09:21.527Z,94096.03
2022-08-24T18:11:48.158Z,94093.25
2022-08-24T18:14:15.089Z,94097.09
2022-08-24T18:16:41.835Z,94100.38
2022-08-24T18:19:11.865Z,94103.94
2022-08-24T18:21:38.693Z,94105.81
2022-08-24T18:24:05.771Z,94100.69
2022-08-24T18:26:33.769Z,94107.19
2022-08-24T18:29:09.042Z,94104.22
2022-08-24T18:31:36.012Z,94104.31
2022-08-24T18:34:02.707Z,94108.88
2022-08-24T18:36:29.420Z,94110.38
2022-08-24T18:38:56.044Z,94119.75
2022-08-24T18:41:35.396Z,94115.94
2022-08-24T18:44:03.704Z,94115.69
2022-08-24T18:46:31.289Z,94120.53
2022-08-24T18:48:59.041Z,94112.66
2022-08-24T18:51:28.137Z,94121.41
2022-08-24T18:54:05.372Z,94127.75
2022-08-24T18:56:32.133Z,94128.59
2022-08-24T18:58:58.875Z,94129.81
2022-08-24T19:01:27.335Z,94137.69
2022-08-24T19:03:55.565Z,94146.88
2022-08-24T19:06:24.374Z,94149.81
2022-08-24T19:08:51.249Z,94149.38
2022-08-24T19:11:23.348Z,94152.34
2022-08-24T19:13:50.000Z,94144.81
2022-08-24T19:16:17.036Z,94156.41
2022-08-24T19:18:45.922Z,94159.72
2022-08-24T19:21:12.632Z,94158.38
2022-08-24T19:23:40.638Z,94162.41
2022-08-24T19:26:07.392Z,94171.03
2022-08-24T19:28:34.138Z,94154.63
2022-08-24T19:31:03.740Z,94171.59
2022-08-24T19:33:41.252Z,94167.50
2022-08-24T19:36:08.072Z,94178.25
2022-08-24T19:38:34.776Z,94177.28
2022-08-24T19:41:03.580Z,94172.13
2022-08-24T19:43:58.543Z,94163.16
2022-08-24T19:46:25.297Z,94170.47
2022-08-24T19:48:52.064Z,94175.94
2022-08-24T19:51:18.854Z,94177.13
2022-08-24T19:53:45.752Z,94162.31
2022-08-24T19:56:12.441Z,94161.19
2022-08-24T19:59:01.296Z,94150.63
2022-08-24T20:01:34.459Z,94155.63
2022-08-24T20:04:03.333Z,94155.16
2022-08-24T20:06:33.349Z,94154.19
2022-08-24T20:09:02.843Z,94149.53
2022-08-24T20:11:29.705Z,94136.16
2022-08-24T20:13:56.728Z,94139.50
2022-08-24T20:16:26.633Z,94130.78
2022-08-24T20:18:53.475Z,94132.22
2022-08-24T20:21:20.368Z,94122.69
2022-08-24T20:23:47.024Z,94126.19
2022-08-24T20:26:14.161Z,94130.25
2022-08-24T20:28:48.121Z,94133.31
2022-08-24T20:31:15.731Z,94134.59
2022-08-24T20:33:42.469Z,94130.72
2022-08-24T20:36:36.414Z,94120.22
2022-08-24T20:39:07.071Z,94117.25
2022-08-24T20:41:33.822Z,94105.78
2022-08-24T20:44:01.607Z,94114.44
2022-08-24T20:46:29.119Z,94116.59
2022-08-24T20:48:57.285Z,94108.00
2022-08-24T20:51:26.767Z,94118.41
2022-08-24T20:53:54.174Z,94118.66
2022-08-24T20:56:31.477Z,94117.09
2022-08-24T20:59:01.258Z,94107.44
2022-08-24T21:01:27.998Z,94103.31
2022-08-24T21:03:54.716Z,94108.31
2022-08-24T21:06:21.452Z,94108.72
2022-08-24T21:08:50.786Z,94115.72
2022-08-24T21:11:18.210Z,94121.06
2022-08-24T21:13:44.877Z,94132.56
2022-08-24T21:16:14.901Z,94133.44
2022-08-24T21:18:46.868Z,94130.72
2022-08-24T21:21:13.971Z,94133.25
2022-08-24T21:23:40.740Z,94127.59
2022-08-24T21:26:10.728Z,94127.78
2022-08-24T21:28:41.033Z,94124.84
2022-08-24T21:31:07.776Z,94136.09
2022-08-24T21:33:53.554Z,94131.97
2022-08-24T21:36:23.458Z,94138.56
2022-08-24T21:38:52.023Z,94136.66
2022-08-24T21:41:20.561Z,94138.44
2022-08-24T21:43:47.259Z,94142.38
2022-08-24T21:46:14.336Z,94149.38
2022-08-24T21:48:41.209Z,94137.22
2022-08-24T21:51:08.058Z,94135.97
2022-08-24T21:53:34.883Z,94135.16
2022-08-24T21:56:02.484Z,94140.97
2022-08-24T21:58:29.604Z,94137.16
2022-08-24T22:00:59.041Z,94133.16
2022-08-24T22:03:26.433Z,94130.84
2022-08-24T22:05:58.479Z,94133.25
2022-08-24T22:08:26.074Z,94135.63
2022-08-24T22:10:55.482Z,94127.44
2022-08-24T22:13:22.263Z,94134.75
2022-08-24T22:15:50.230Z,94126.28
2022-08-24T22:18:16.963Z,94120.25
2022-08-24T22:20:43.623Z,94119.75
2022-08-24T22:23:10.331Z,94109.91
2022-08-24T22:25:37.009Z,94110.78
2022-08-24T22:28:03.941Z,94105.56
2022-08-24T22:30:33.114Z,94099.94
2022-08-24T22:33:00.280Z,94101.03
2022-08-24T22:35:27.362Z,94091.66
2022-08-24T22:37:54.034Z,94093.91
2022-08-24T22:40:20.818Z,94086.09
2022-08-24T22:42:47.524Z,94080.22
2022-08-24T22:45:14.140Z,94080.78
2022-08-24T22:47:40.795Z,94081.88
2022-08-24T22:50:08.460Z,94071.88
2022-08-24T22:52:35.111Z,94060.75
2022-08-24T22:55:01.814Z,94064.34
2022-08-24T22:57:30.389Z,94064.69
2022-08-24T22:59:57.696Z,94062.03
2022-08-24T23:02:24.532Z,94054.34
2022-08-24T23:04:52.774Z,94051.28
2022-08-24T23:07:20.438Z,94055.91
2022-08-24T23:09:48.415Z,94048.50
2022-08-24T23:12:19.300Z,94049.06
2022-08-24T23:14:46.039Z,94038.56
2022-08-24T23:17:12.800Z,94046.22
2022-08-24T23:19:58.160Z,94058.66
2022-08-24T23:22:25.582Z,94045.78
2022-08-24T23:24:52.913Z,94046.97
2022-08-24T23:27:20.150Z,94041.66
2022-08-24T23:29:47.773Z,94056.97
2022-08-24T23:32:18.102Z,94052.19
2022-08-24T23:34:46.391Z,94046.53
2022-08-24T23:37:13.536Z,94041.09
2022-08-24T23:39:40.203Z,94040.69
2022-08-24T23:42:07.153Z,94043.84
2022-08-24T23:44:34.031Z,94048.31
2022-08-24T23:47:01.204Z,94046.41
2022-08-24T23:49:29.510Z,94039.19
2022-08-24T23:51:56.365Z,94052.28
2022-08-24T23:54:23.740Z,94045.56
2022-08-24T23:56:51.518Z,94048.47
2022-08-24T23:59:22.346Z,94048.25
